createdAt,value
2024-02-16T00:01:02.412Z,79.71
2024-02-16T00:03:29.352Z,80.04
2024-02-16T00:05:56.440Z,79.19
2024-02-16T00:08:23.214Z,78.85
2024-02-16T00:10:49.988Z,79.53
2024-02-16T00:13:16.713Z,79.46
2024-02-16T00:15:43.451Z,78.80
2024-02-16T00:18:10.230Z,77.71
2024-02-16T00:20:36.977Z,78.15
2024-02-16T00:23:03.713Z,78.05
2024-02-16T00:25:30.761Z,78.71
2024-02-16T00:27:57.493Z,78.73
2024-02-16T00:30:24.306Z,78.84
2024-02-16T00:32:51.275Z,78.27
2024-02-16T00:35:19.115Z,78.79
2024-02-16T00:37:46.954Z,79.07
2024-02-16T00:40:13.839Z,78.11
2024-02-16T00:42:40.756Z,78.54
2024-02-16T00:45:08.265Z,78.46
2024-02-16T00:47:35.078Z,78.41
2024-02-16T00:50:02.049Z,78.42
2024-02-16T00:52:28.770Z,78.95
2024-02-16T00:54:55.513Z,78.89
2024-02-16T00:57:22.258Z,79.71
2024-02-16T00:59:48.995Z,79.35
2024-02-16T01:02:17.824Z,79.51
2024-02-16T01:04:44.573Z,78.16
2024-02-16T01:07:11.353Z,77.82
2024-02-16T01:09:38.103Z,78.24
2024-02-16T01:12:04.969Z,77.60
2024-02-16T01:14:31.667Z,77.94
2024-02-16T01:16:58.336Z,78.17
2024-02-16T01:19:25.129Z,78.61
2024-02-16T01:21:54.285Z,78.38
2024-02-16T01:24:22.428Z,78.31
2024-02-16T01:26:49.485Z,77.62
2024-02-16T01:29:16.273Z,77.47
2024-02-16T01:31:42.919Z,78.49
2024-02-16T01:34:09.748Z,78.04
2024-02-16T01:36:36.512Z,77.59
2024-02-16T01:39:03.404Z,77.82
2024-02-16T01:41:30.227Z,78.44
2024-02-16T01:43:57.375Z,78.36
2024-02-16T01:46:24.139Z,78.17
2024-02-16T01:48:51.801Z,78.02
2024-02-16T01:51:19.108Z,77.97
2024-02-16T01:53:47.164Z,78.30
2024-02-16T01:56:13.937Z,79.01
2024-02-16T01:58:40.849Z,79.15
2024-02-16T02:01:07.620Z,79.67
2024-02-16T02:03:36.168Z,78.86
2024-02-16T02:06:03.222Z,78.81
2024-02-16T02:08:30.422Z,79.19
2024-02-16T02:10:57.273Z,78.56
2024-02-16T02:13:24.102Z,78.24
2024-02-16T02:15:50.938Z,78.05
2024-02-16T02:18:17.902Z,78.31
2024-02-16T02:20:44.718Z,78.19
2024-02-16T02:23:11.385Z,78.46
2024-02-16T02:25:38.085Z,78.31
2024-02-16T02:28:05.118Z,78.43
2024-02-16T02:30:31.946Z,79.31
2024-02-16T02:32:58.887Z,78.36
2024-02-16T02:35:25.669Z,78.15
2024-02-16T02:37:52.352Z,78.17
2024-02-16T02:40:19.246Z,77.67
2024-02-16T02:42:45.995Z,78.73
2024-02-16T02:45:12.722Z,78.98
2024-02-16T02:47:39.587Z,78.97
2024-02-16T02:50:07.271Z,79.30
2024-02-16T02:52:33.999Z,79.58
2024-02-16T02:55:00.670Z,78.92
2024-02-16T02:57:27.466Z,78.33
2024-02-16T02:59:54.286Z,79.29
2024-02-16T03:02:21.046Z,79.25
2024-02-16T03:04:47.984Z,78.85
2024-02-16T03:07:15.488Z,78.07
2024-02-16T03:09:44.436Z,79.15
2024-02-16T03:12:11.119Z,78.57
2024-02-16T03:14:38.665Z,78.35
2024-02-16T03:17:06.579Z,78.95
2024-02-16T03:19:33.554Z,79.03
2024-02-16T03:22:00.414Z,79.30
2024-02-16T03:24:27.137Z,79.13
2024-02-16T03:26:53.920Z,78.88
2024-02-16T03:29:20.645Z,78.41
2024-02-16T03:31:47.351Z,79.06
2024-02-16T03:34:14.314Z,78.68
2024-02-16T03:36:41.071Z,78.35
2024-02-16T03:39:10.338Z,78.72
2024-02-16T03:41:37.119Z,78.61
2024-02-16T03:44:03.918Z,78.45
2024-02-16T03:46:31.245Z,78.85
2024-02-16T03:48:58.231Z,78.68
2024-02-16T03:51:25.216Z,78.21
2024-02-16T03:53:51.931Z,78.60
2024-02-16T03:56:22.153Z,78.95
2024-02-16T03:58:49.191Z,79.04
2024-02-16T04:01:15.975Z,79.32
2024-02-16T04:03:42.819Z,80.12
2024-02-16T04:06:09.551Z,79.92
2024-02-16T04:08:36.256Z,79.46
2024-02-16T04:11:04.127Z,79.63
2024-02-16T04:13:30.961Z,79.29
2024-02-16T04:15:57.745Z,79.85
2024-02-16T04:18:24.698Z,79.21
2024-02-16T04:20:51.488Z,79.61
2024-02-16T04:23:18.158Z,79.71
2024-02-16T04:25:44.844Z,79.89
2024-02-16T04:28:11.582Z,79.58
2024-02-16T04:30:38.355Z,79.65
2024-02-16T04:33:05.571Z,79.54
2024-02-16T04:35:32.654Z,79.21
2024-02-16T04:37:59.331Z,79.65
2024-02-16T04:40:26.321Z,79.05
2024-02-16T04:42:53.014Z,79.70
2024-02-16T04:45:19.970Z,80.18
2024-02-16T04:47:47.097Z,80.05
2024-02-16T04:50:15.029Z,80.18
2024-02-16T04:52:42.287Z,80.67
2024-02-16T04:55:09.387Z,79.96
2024-02-16T04:57:36.319Z,80.18
2024-02-16T05:00:04.328Z,80.45
2024-02-16T05:02:31.060Z,80.54
2024-02-16T05:04:59.326Z,80.09
2024-02-16T05:07:27.355Z,80.67
2024-02-16T05:09:59.108Z,80.21
2024-02-16T05:12:26.569Z,80.49
2024-02-16T05:14:57.204Z,80.81
2024-02-16T05:17:27.665Z,80.46
2024-02-16T05:19:55.164Z,80.44
2024-02-16T05:22:23.169Z,80.08
2024-02-16T05:24:50.050Z,80.70
2024-02-16T05:27:17.064Z,80.51
2024-02-16T05:29:43.783Z,81.14
2024-02-16T05:32:11.709Z,80.49
2024-02-16T05:34:38.919Z,80.93
2024-02-16T05:37:07.564Z,80.67
2024-02-16T05:39:37.040Z,80.58
2024-02-16T05:42:04.132Z,80.39
2024-02-16T05:44:31.248Z,80.74
2024-02-16T05:46:58.793Z,80.79
2024-02-16T05:49:25.992Z,80.55
2024-02-16T05:52:11.202Z,79.86
2024-02-16T05:54:39.166Z,80.21
2024-02-16T05:57:06.713Z,80.43
2024-02-16T05:59:33.817Z,80.51
2024-02-16T06:02:00.442Z,80.11
2024-02-16T06:04:27.753Z,80.04
2024-02-16T06:06:55.507Z,80.78
2024-02-16T06:09:22.373Z,80.47
2024-02-16T06:11:49.916Z,80.62
2024-02-16T06:14:20.276Z,80.96
2024-02-16T06:16:47.293Z,80.48
2024-02-16T06:19:30.232Z,80.24
2024-02-16T06:21:57.504Z,81.09
2024-02-16T06:24:24.739Z,81.53
2024-02-16T06:26:55.805Z,80.95
2024-02-16T06:29:24.205Z,81.18
2024-02-16T06:31:51.022Z,80.95
2024-02-16T06:34:17.882Z,81.10
2024-02-16T06:36:44.714Z,80.75
2024-02-16T06:39:12.601Z,81.30
2024-02-16T06:41:40.297Z,80.84
2024-02-16T06:44:07.030Z,81.25
2024-02-16T06:46:34.379Z,81.38
2024-02-16T06:49:01.146Z,81.69
2024-02-16T06:51:29.667Z,81.70
2024-02-16T06:53:56.419Z,81.53
2024-02-16T06:56:23.451Z,81.29
2024-02-16T06:58:50.269Z,81.05
2024-02-16T07:01:19.637Z,80.96
2024-02-16T07:03:46.697Z,80.88
2024-02-16T07:06:15.137Z,80.79
2024-02-16T07:08:42.477Z,80.56
2024-02-16T07:11:09.827Z,80.79
2024-02-16T07:13:38.880Z,80.80
2024-02-16T07:16:07.816Z,80.80
2024-02-16T07:18:35.043Z,80.62
2024-02-16T07:21:02.937Z,80.84
2024-02-16T07:23:30.159Z,80.91
2024-02-16T07:25:59.483Z,80.46
2024-02-16T07:28:27.292Z,80.24
2024-02-16T07:30:54.404Z,80.21
2024-02-16T07:33:21.384Z,80.24
2024-02-16T07:35:48.763Z,80.68
2024-02-16T07:38:15.544Z,80.37
2024-02-16T07:40:42.216Z,79.87
2024-02-16T07:43:09.670Z,79.13
2024-02-16T07:45:36.513Z,79.02
2024-02-16T07:48:07.986Z,79.12
2024-02-16T07:50:35.260Z,78.97
2024-02-16T07:53:02.223Z,78.95
2024-02-16T07:55:29.315Z,79.00
2024-02-16T07:57:56.053Z,79.25
2024-02-16T08:00:23.048Z,79.74
2024-02-16T08:02:58.180Z,79.17
2024-02-16T08:05:26.911Z,78.94
2024-02-16T08:07:54.326Z,78.78
2024-02-16T08:10:26.491Z,78.40
2024-02-16T08:12:53.828Z,78.52
2024-02-16T08:15:29.179Z,78.34
2024-02-16T08:17:56.161Z,77.86
2024-02-16T08:20:23.164Z,77.24
2024-02-16T08:22:58.712Z,77.32
2024-02-16T08:25:25.788Z,77.62
2024-02-16T08:27:52.681Z,77.62
2024-02-16T08:30:26.554Z,77.79
2024-02-16T08:32:55.258Z,77.30
2024-02-16T08:35:22.413Z,77.07
2024-02-16T08:37:49.273Z,75.54
2024-02-16T08:40:16.580Z,75.12
2024-02-16T08:42:43.778Z,74.85
2024-02-16T08:45:11.460Z,74.13
2024-02-16T08:47:40.144Z,73.92
2024-02-16T08:50:08.275Z,72.85
2024-02-16T08:52:35.570Z,72.35
2024-02-16T08:55:02.401Z,71.36
2024-02-16T08:57:40.928Z,70.48
2024-02-16T09:00:08.870Z,70.86
2024-02-16T09:05:30.960Z,70.17
2024-02-16T09:07:57.685Z,70.31
2024-02-16T09:10:24.359Z,70.61
2024-02-16T09:12:52.926Z,70.70
2024-02-16T09:15:19.584Z,70.25
2024-02-16T09:17:46.679Z,69.88
2024-02-16T09:20:13.656Z,70.48
2024-02-16T09:22:46.827Z,70.63
2024-02-16T09:25:15.517Z,70.92
2024-02-16T09:27:45.981Z,70.99
2024-02-16T09:30:13.924Z,70.70
2024-02-16T09:32:41.793Z,70.33
2024-02-16T09:35:08.703Z,71.17
2024-02-16T09:37:36.890Z,70.64
2024-02-16T09:40:04.986Z,70.35
2024-02-16T09:42:31.635Z,71.15
2024-02-16T09:44:58.280Z,71.87
2024-02-16T09:47:34.146Z,71.17
2024-02-16T09:50:01.041Z,71.39
2024-02-16T09:52:28.135Z,71.36
2024-02-16T09:54:54.751Z,70.85
2024-02-16T09:57:22.056Z,70.28
2024-02-16T09:59:48.752Z,70.42
2024-02-16T10:02:15.357Z,68.63
2024-02-16T10:04:42.448Z,68.78
2024-02-16T10:07:12.632Z,66.93
2024-02-16T10:09:41.878Z,65.17
2024-02-16T10:12:09.992Z,62.51
2024-02-16T10:14:36.617Z,63.47
2024-02-16T10:17:05.065Z,62.53
2024-02-16T10:19:40.717Z,62.94
2024-02-16T10:22:14.144Z,60.98
2024-02-16T10:24:42.327Z,59.89
2024-02-16T10:27:20.219Z,60.16
2024-02-16T10:29:54.991Z,57.67
2024-02-16T10:32:21.774Z,58.46
2024-02-16T10:34:50.696Z,56.39
2024-02-16T10:37:18.342Z,55.95
2024-02-16T10:39:46.376Z,55.79
2024-02-16T10:42:15.561Z,53.68
2024-02-16T10:44:43.797Z,52.53
2024-02-16T10:47:10.632Z,52.73
2024-02-16T10:49:37.650Z,53.51
2024-02-16T10:52:07.527Z,52.65
2024-02-16T10:54:35.462Z,54.05
2024-02-16T10:57:02.271Z,53.55
2024-02-16T10:59:41.835Z,52.36
2024-02-16T11:02:08.477Z,52.48
2024-02-16T11:04:42.119Z,52.92
2024-02-16T11:07:26.945Z,52.09
2024-02-16T11:09:53.684Z,53.08
2024-02-16T11:12:20.351Z,52.09
2024-02-16T11:14:55.985Z,54.91
2024-02-16T11:17:24.458Z,55.36
2024-02-16T11:19:52.147Z,54.33
2024-02-16T11:22:20.797Z,55.04
2024-02-16T11:24:54.533Z,54.58
2024-02-16T11:27:23.435Z,54.72
2024-02-16T11:29:51.361Z,55.04
2024-02-16T11:32:20.403Z,55.02
2024-02-16T11:34:47.517Z,55.03
2024-02-16T11:37:15.804Z,54.97
2024-02-16T11:39:45.982Z,55.17
2024-02-16T11:42:14.968Z,53.95
2024-02-16T11:44:55.836Z,53.72
2024-02-16T11:47:27.655Z,54.18
2024-02-16T11:50:01.878Z,53.95
2024-02-16T11:52:28.683Z,55.14
2024-02-16T11:54:57.790Z,55.53
2024-02-16T11:57:25.981Z,53.06
2024-02-16T11:59:53.373Z,54.78
2024-02-16T12:02:21.970Z,53.53
2024-02-16T12:04:55.439Z,55.16
2024-02-16T12:07:29.665Z,53.95
2024-02-16T12:10:00.438Z,53.92
2024-02-16T12:12:28.527Z,54.62
2024-02-16T12:14:56.173Z,53.71
2024-02-16T12:17:23.273Z,54.11
2024-02-16T12:19:53.368Z,53.61
2024-02-16T12:22:21.566Z,53.40
2024-02-16T12:24:49.198Z,53.45
2024-02-16T12:27:15.948Z,54.54
2024-02-16T12:29:42.579Z,54.52
2024-02-16T12:32:10.614Z,55.08
2024-02-16T12:34:40.758Z,55.73
2024-02-16T12:37:12.553Z,54.88
2024-02-16T12:39:40.486Z,55.27
2024-02-16T12:42:07.819Z,56.19
2024-02-16T12:44:34.368Z,55.95
2024-02-16T12:47:00.980Z,56.64
2024-02-16T12:49:27.659Z,56.28
2024-02-16T12:51:55.578Z,55.96
2024-02-16T12:54:23.527Z,55.97
2024-02-16T12:56:51.035Z,56.44
2024-02-16T12:59:18.109Z,56.73
2024-02-16T13:01:45.281Z,57.07
2024-02-16T13:04:12.149Z,56.69
2024-02-16T13:06:39.027Z,57.44
2024-02-16T13:09:06.830Z,57.44
2024-02-16T13:11:35.378Z,57.80
2024-02-16T13:14:02.229Z,57.61
2024-02-16T13:16:28.886Z,57.66
2024-02-16T13:18:55.533Z,57.64
2024-02-16T13:21:22.481Z,58.03
2024-02-16T13:23:49.415Z,57.18
2024-02-16T13:26:16.150Z,56.99
2024-02-16T13:28:42.758Z,58.37
2024-02-16T13:31:11.257Z,57.94
2024-02-16T13:33:38.447Z,58.22
2024-02-16T13:36:06.600Z,58.58
2024-02-16T13:38:33.288Z,58.81
2024-02-16T13:40:59.958Z,58.81
2024-02-16T13:43:27.225Z,59.31
2024-02-16T13:45:55.590Z,59.58
2024-02-16T13:48:23.107Z,59.63
2024-02-16T13:50:50.891Z,59.98
2024-02-16T13:53:21.337Z,60.60
2024-02-16T13:55:48.974Z,61.25
2024-02-16T13:58:15.806Z,61.41
2024-02-16T14:00:42.599Z,61.91
2024-02-16T14:03:15.813Z,62.46
2024-02-16T14:05:45.545Z,62.51
2024-02-16T14:08:13.914Z,61.99
2024-02-16T14:10:40.708Z,62.31
2024-02-16T14:13:07.568Z,62.54
2024-02-16T14:15:34.242Z,62.56
2024-02-16T14:18:06.338Z,62.33
2024-02-16T14:20:38.738Z,62.97
2024-02-16T14:23:09.023Z,62.76
2024-02-16T14:25:38.094Z,63.29
2024-02-16T14:28:05.247Z,63.09
2024-02-16T14:30:33.544Z,63.78
2024-02-16T14:33:00.653Z,63.20
2024-02-16T14:35:27.365Z,63.17
2024-02-16T14:37:54.022Z,63.04
2024-02-16T14:40:20.630Z,63.15
2024-02-16T14:42:47.264Z,63.11
2024-02-16T14:45:20.982Z,62.52
2024-02-16T14:47:51.885Z,62.92
2024-02-16T14:50:18.769Z,62.74
2024-02-16T14:52:46.537Z,62.71
2024-02-16T14:55:14.673Z,63.12
2024-02-16T14:57:42.169Z,63.42
2024-02-16T15:00:10.592Z,63.21
2024-02-16T15:02:38.520Z,63.36
2024-02-16T15:05:06.613Z,63.25
2024-02-16T15:07:33.348Z,63.51
2024-02-16T15:10:00.612Z,63.83
2024-02-16T15:12:28.533Z,63.29
2024-02-16T15:14:56.132Z,63.44
2024-02-16T15:17:23.107Z,62.73
2024-02-16T15:19:50.039Z,63.51
2024-02-16T15:22:16.877Z,63.81
2024-02-16T15:24:43.845Z,63.83
2024-02-16T15:27:11.548Z,64.08
2024-02-16T15:29:38.268Z,64.09
2024-02-16T15:32:05.148Z,63.85
2024-02-16T15:34:31.946Z,64.59
2024-02-16T15:36:59.731Z,64.56
2024-02-16T15:39:26.615Z,64.33
2024-02-16T15:41:56.464Z,64.78
2024-02-16T15:44:23.354Z,65.01
2024-02-16T15:46:49.991Z,65.70
2024-02-16T15:49:16.784Z,66.69
2024-02-16T15:51:43.618Z,66.47
2024-02-16T15:54:10.331Z,66.42
2024-02-16T15:56:37.033Z,67.03
2024-02-16T15:59:03.767Z,67.29
2024-02-16T16:01:31.641Z,68.11
2024-02-16T16:03:58.407Z,68.74
2024-02-16T16:06:25.300Z,68.63
2024-02-16T16:08:52.697Z,69.62
2024-02-16T16:11:20.181Z,69.08
2024-02-16T16:13:47.064Z,69.93
2024-02-16T16:16:13.971Z,69.96
2024-02-16T16:18:40.649Z,70.07
2024-02-16T16:21:07.595Z,70.21
2024-02-16T16:23:38.847Z,70.13
2024-02-16T16:26:05.680Z,70.46
2024-02-16T16:28:32.986Z,71.12
2024-02-16T16:31:01.707Z,70.76
2024-02-16T16:33:28.797Z,71.10
2024-02-16T16:35:55.964Z,71.00
2024-02-16T16:38:22.819Z,71.81
2024-02-16T16:40:49.865Z,72.20
2024-02-16T16:43:17.295Z,72.72
2024-02-16T16:45:44.023Z,74.86
2024-02-16T16:48:11.024Z,73.07
2024-02-16T16:50:38.129Z,73.91
2024-02-16T16:53:05.685Z,73.46
2024-02-16T16:55:32.614Z,73.78
2024-02-16T16:57:59.373Z,74.07
2024-02-16T17:00:26.176Z,74.08
2024-02-16T17:02:52.972Z,74.40
2024-02-16T17:05:19.609Z,74.79
2024-02-16T17:07:49.501Z,74.69
2024-02-16T17:10:16.952Z,75.01
2024-02-16T17:12:45.519Z,75.74
2024-02-16T17:15:19.174Z,76.04
2024-02-16T17:17:52.116Z,76.13
2024-02-16T17:20:22.549Z,77.03
2024-02-16T17:22:50.339Z,76.48
2024-02-16T17:25:17.018Z,77.67
2024-02-16T17:27:45.459Z,77.56
2024-02-16T17:30:13.014Z,77.19
2024-02-16T17:32:41.935Z,77.51
2024-02-16T17:35:09.720Z,77.98
2024-02-16T17:37:36.832Z,77.32
2024-02-16T17:40:04.948Z,77.58
2024-02-16T17:42:31.645Z,78.28
2024-02-16T17:44:59.772Z,77.38
2024-02-16T17:47:26.476Z,76.94
2024-02-16T17:49:53.302Z,77.67
2024-02-16T17:52:20.398Z,77.36
2024-02-16T17:54:47.051Z,77.91
2024-02-16T17:57:13.656Z,77.73
2024-02-16T17:59:40.299Z,78.06
2024-02-16T18:02:17.174Z,78.70
2024-02-16T18:04:52.364Z,78.60
2024-02-16T18:07:19.218Z,78.65
2024-02-16T18:09:46.827Z,78.31
2024-02-16T18:12:17.749Z,78.37
2024-02-16T18:14:45.239Z,78.72
2024-02-16T18:17:13.940Z,78.19
2024-02-16T18:19:41.209Z,78.52
2024-02-16T18:22:11.146Z,78.79
2024-02-16T18:24:38.167Z,78.65
2024-02-16T18:27:05.559Z,78.95
2024-02-16T18:29:32.361Z,79.43
2024-02-16T18:31:59.007Z,79.30
2024-02-16T18:34:25.809Z,79.56
2024-02-16T18:36:53.275Z,79.52
2024-02-16T18:39:20.780Z,79.61
2024-02-16T18:41:47.930Z,79.41
2024-02-16T18:44:16.494Z,80.59
2024-02-16T18:46:43.909Z,79.94
2024-02-16T18:49:11.294Z,79.54
2024-02-16T18:51:38.640Z,79.68
2024-02-16T18:54:07.005Z,79.85
2024-02-16T18:56:33.757Z,79.76
2024-02-16T18:59:01.371Z,80.38
2024-02-16T19:01:28.572Z,80.79
2024-02-16T19:03:55.483Z,80.10
2024-02-16T19:06:22.416Z,80.21
2024-02-16T19:08:49.188Z,80.75
2024-02-16T19:11:16.044Z,80.86
2024-02-16T19:13:42.870Z,80.61
2024-02-16T19:16:09.459Z,80.60
2024-02-16T19:18:37.167Z,81.20
2024-02-16T19:21:07.715Z,82.42
2024-02-16T19:23:35.427Z,82.52
2024-02-16T19:26:02.738Z,82.13
2024-02-16T19:28:30.238Z,82.96
2024-02-16T19:30:58.170Z,81.88
2024-02-16T19:33:25.207Z,81.39
2024-02-16T19:35:53.402Z,82.23
2024-02-16T19:38:20.026Z,81.03
2024-02-16T19:40:46.772Z,81.44
2024-02-16T19:43:15.396Z,82.23
2024-02-16T19:45:42.287Z,82.10
2024-02-16T19:48:09.211Z,81.97
2024-02-16T19:50:35.900Z,82.39
2024-02-16T19:53:02.704Z,82.51
2024-02-16T19:55:29.629Z,82.06
2024-02-16T19:57:56.984Z,82.48
2024-02-16T20:00:24.642Z,83.37
2024-02-16T20:02:53.293Z,83.42
2024-02-16T20:05:23.582Z,83.67
2024-02-16T20:07:50.606Z,84.40
2024-02-16T20:10:17.765Z,83.56
2024-02-16T20:12:44.730Z,84.40
2024-02-16T20:15:11.735Z,85.17
2024-02-16T20:17:38.942Z,84.13
2024-02-16T20:20:06.669Z,84.76
2024-02-16T20:22:34.167Z,85.16
2024-02-16T20:25:01.443Z,85.88
2024-02-16T20:27:28.567Z,86.02
2024-02-16T20:29:55.941Z,85.55
2024-02-16T20:32:23.530Z,84.89
2024-02-16T20:34:50.419Z,84.82
2024-02-16T20:37:17.166Z,84.91
2024-02-16T20:39:43.796Z,85.61
2024-02-16T20:42:10.465Z,85.85
2024-02-16T20:44:38.456Z,85.74
2024-02-16T20:47:07.429Z,86.40
2024-02-16T20:49:34.729Z,86.85
2024-02-16T20:52:01.329Z,87.36
2024-02-16T20:54:31.277Z,86.10
2024-02-16T20:56:58.234Z,85.84
2024-02-16T20:59:25.007Z,85.50
2024-02-16T21:01:51.588Z,85.35
2024-02-16T21:04:34.717Z,86.57
2024-02-16T21:07:02.958Z,87.12
2024-02-16T21:09:29.813Z,87.28
2024-02-16T21:11:56.839Z,87.63
2024-02-16T21:14:23.918Z,87.32
2024-02-16T21:16:51.099Z,87.29
2024-02-16T21:19:23.968Z,87.95
2024-02-16T21:21:50.783Z,86.69
2024-02-16T21:24:21.563Z,86.75
2024-02-16T21:26:49.647Z,87.38
2024-02-16T21:29:17.521Z,86.64
2024-02-16T21:31:45.503Z,86.46
2024-02-16T21:34:13.482Z,87.24
2024-02-16T21:36:40.790Z,87.66
2024-02-16T21:39:08.258Z,87.58
2024-02-16T21:41:35.848Z,86.62
2024-02-16T21:44:04.648Z,88.18
2024-02-16T21:46:32.898Z,88.26
2024-02-16T21:49:04.951Z,88.41
2024-02-16T21:51:33.803Z,88.08
2024-02-16T21:54:00.878Z,87.31
2024-02-16T21:56:27.615Z,88.01
2024-02-16T21:58:56.203Z,87.82
2024-02-16T22:01:24.116Z,88.22
2024-02-16T22:03:52.383Z,88.39
2024-02-16T22:06:27.659Z,88.70
2024-02-16T22:08:54.933Z,88.44
2024-02-16T22:11:22.990Z,88.50
2024-02-16T22:13:50.286Z,88.37
2024-02-16T22:16:17.914Z,88.90
2024-02-16T22:18:46.146Z,88.30
2024-02-16T22:21:13.579Z,88.62
2024-02-16T22:23:41.025Z,88.88
2024-02-16T22:26:08.826Z,88.76
2024-02-16T22:28:35.706Z,88.83
2024-02-16T22:31:02.606Z,88.88
2024-02-16T22:33:29.690Z,89.50
2024-02-16T22:35:58.744Z,90.52
2024-02-16T22:38:25.517Z,89.61
2024-02-16T22:40:52.491Z,90.02
2024-02-16T22:43:19.122Z,89.74
2024-02-16T22:45:45.961Z,89.50
2024-02-16T22:48:15.236Z,89.59
2024-02-16T22:50:43.796Z,89.19
2024-02-16T22:53:10.996Z,89.69
2024-02-16T22:55:38.813Z,90.22
2024-02-16T22:58:06.866Z,90.13
2024-02-16T23:00:42.553Z,91.17
2024-02-16T23:03:13.217Z,90.55
2024-02-16T23:05:40.657Z,90.00
2024-02-16T23:08:08.396Z,90.05
2024-02-16T23:10:35.338Z,90.12
2024-02-16T23:13:03.599Z,89.28
2024-02-16T23:15:30.834Z,89.36
2024-02-16T23:17:57.490Z,88.93
2024-02-16T23:20:24.089Z,89.44
2024-02-16T23:23:11.578Z,89.99
2024-02-16T23:25:45.155Z,90.16
2024-02-16T23:28:16.064Z,89.67
2024-02-16T23:30:43.873Z,90.19
2024-02-16T23:33:14.388Z,90.74
2024-02-16T23:35:41.479Z,90.69
2024-02-16T23:38:11.309Z,90.58
2024-02-16T23:40:39.082Z,90.16
2024-02-16T23:43:05.963Z,90.79
2024-02-16T23:45:35.671Z,89.85
2024-02-16T23:48:02.794Z,90.53
2024-02-16T23:50:32.042Z,89.97
2024-02-16T23:52:59.365Z,89.76
2024-02-16T23:55:26.496Z,91.13
2024-02-16T23:57:54.168Z,90.67
